sensor_id;sensor_type;location;lat;lon;timestamp;P1;durP1;ratioP1;P2;durP2;ratioP2
68976;SDS011;56029;52.568;13.588;2023-04-28T00:00:56;9.93;;;3.30;;
68976;SDS011;56029;52.568;13.588;2023-04-28T00:03:21;9.80;;;4.10;;
68976;SDS011;56029;52.568;13.588;2023-04-28T00:05:47;8.27;;;3.47;;
68976;SDS011;56029;52.568;13.588;2023-04-28T00:08:13;9.53;;;3.50;;
68976;SDS011;56029;52.568;13.588;2023-04-28T00:10:39;7.50;;;3.42;;
68976;SDS011;56029;52.568;13.588;2023-04-28T00:13:04;8.47;;;3.40;;
68976;SDS011;56029;52.568;13.588;2023-04-28T00:15:30;7.93;;;3.53;;
68976;SDS011;56029;52.568;13.588;2023-04-28T00:17:55;9.10;;;3.40;;
68976;SDS011;56029;52.568;13.588;2023-04-28T00:20:21;8.20;;;3.50;;
68976;SDS011;56029;52.568;13.588;2023-04-28T00:22:46;7.93;;;3.47;;
68976;SDS011;56029;52.568;13.588;2023-04-28T00:25:13;8.85;;;3.67;;
68976;SDS011;56029;52.568;13.588;2023-04-28T00:27:39;7.50;;;3.50;;
68976;SDS011;56029;52.568;13.588;2023-04-28T00:30:05;9.35;;;3.97;;
68976;SDS011;56029;52.568;13.588;2023-04-28T00:32:31;10.20;;;4.10;;
68976;SDS011;56029;52.568;13.588;2023-04-28T00:34:56;10.57;;;4.13;;
68976;SDS011;56029;52.568;13.588;2023-04-28T00:37:22;8.47;;;3.83;;
68976;SDS011;56029;52.568;13.588;2023-04-28T00:39:47;10.77;;;3.87;;
68976;SDS011;56029;52.568;13.588;2023-04-28T00:42:13;9.27;;;4.35;;
68976;SDS011;56029;52.568;13.588;2023-04-28T00:44:39;10.83;;;4.47;;
68976;SDS011;56029;52.568;13.588;2023-04-28T00:47:05;10.48;;;4.13;;
68976;SDS011;56029;52.568;13.588;2023-04-28T00:49:33;10.70;;;5.30;;
68976;SDS011;56029;52.568;13.588;2023-04-28T00:52:03;10.57;;;5.15;;
68976;SDS011;56029;52.568;13.588;2023-04-28T00:54:31;9.98;;;4.63;;
68976;SDS011;56029;52.568;13.588;2023-04-28T00:56:58;9.80;;;4.60;;
68976;SDS011;56029;52.568;13.588;2023-04-28T00:59:24;9.15;;;4.40;;
68976;SDS011;56029;52.568;13.588;2023-04-28T01:01:50;9.10;;;4.50;;
68976;SDS011;56029;52.568;13.588;2023-04-28T01:04:16;10.60;;;4.97;;
68976;SDS011;56029;52.568;13.588;2023-04-28T01:06:44;9.50;;;4.63;;
68976;SDS011;56029;52.568;13.588;2023-04-28T01:09:11;9.25;;;4.70;;
68976;SDS011;56029;52.568;13.588;2023-04-28T01:11:36;9.88;;;4.38;;
68976;SDS011;56029;52.568;13.588;2023-04-28T01:14:02;9.65;;;4.53;;
68976;SDS011;56029;52.568;13.588;2023-04-28T01:16:27;9.83;;;4.37;;
68976;SDS011;56029;52.568;13.588;2023-04-28T01:18:54;9.57;;;4.65;;
68976;SDS011;56029;52.568;13.588;2023-04-28T01:21:26;7.53;;;3.83;;
68976;SDS011;56029;52.568;13.588;2023-04-28T01:23:55;10.93;;;4.35;;
68976;SDS011;56029;52.568;13.588;2023-04-28T01:26:22;7.75;;;4.00;;
68976;SDS011;56029;52.568;13.588;2023-04-28T01:28:47;10.13;;;4.83;;
68976;SDS011;56029;52.568;13.588;2023-04-28T01:31:13;7.87;;;3.93;;
68976;SDS011;56029;52.568;13.588;2023-04-28T01:33:38;11.20;;;4.30;;
68976;SDS011;56029;52.568;13.588;2023-04-28T01:36:04;9.47;;;4.23;;
68976;SDS011;56029;52.568;13.588;2023-04-28T01:38:30;10.43;;;4.20;;
68976;SDS011;56029;52.568;13.588;2023-04-28T01:40:55;8.30;;;4.00;;
68976;SDS011;56029;52.568;13.588;2023-04-28T01:43:22;9.85;;;3.88;;
68976;SDS011;56029;52.568;13.588;2023-04-28T01:45:48;9.93;;;4.00;;
68976;SDS011;56029;52.568;13.588;2023-04-28T01:48:14;8.07;;;3.80;;
68976;SDS011;56029;52.568;13.588;2023-04-28T01:50:39;9.15;;;4.03;;
68976;SDS011;56029;52.568;13.588;2023-04-28T01:53:05;7.80;;;3.80;;
68976;SDS011;56029;52.568;13.588;2023-04-28T01:55:30;8.23;;;3.87;;
68976;SDS011;56029;52.568;13.588;2023-04-28T01:57:56;8.93;;;3.90;;
68976;SDS011;56029;52.568;13.588;2023-04-28T02:00:22;7.32;;;3.85;;
68976;SDS011;56029;52.568;13.588;2023-04-28T02:02:48;9.15;;;3.92;;
68976;SDS011;56029;52.568;13.588;2023-04-28T02:05:14;8.27;;;3.95;;
68976;SDS011;56029;52.568;13.588;2023-04-28T02:07:40;8.60;;;4.00;;
68976;SDS011;56029;52.568;13.588;2023-04-28T02:10:05;9.52;;;4.00;;
68976;SDS011;56029;52.568;13.588;2023-04-28T02:12:32;8.13;;;4.03;;
68976;SDS011;56029;52.568;13.588;2023-04-28T02:14:58;8.38;;;3.95;;
68976;SDS011;56029;52.568;13.588;2023-04-28T02:17:23;9.60;;;4.20;;
68976;SDS011;56029;52.568;13.588;2023-04-28T02:19:55;8.52;;;3.78;;
68976;SDS011;56029;52.568;13.588;2023-04-28T02:22:22;10.70;;;4.03;;
68976;SDS011;56029;52.568;13.588;2023-04-28T02:24:47;8.10;;;3.60;;
68976;SDS011;56029;52.568;13.588;2023-04-28T02:27:13;8.10;;;3.60;;
68976;SDS011;56029;52.568;13.588;2023-04-28T02:29:38;7.97;;;3.73;;
68976;SDS011;56029;52.568;13.588;2023-04-28T02:32:04;7.83;;;3.53;;
68976;SDS011;56029;52.568;13.588;2023-04-28T02:34:30;9.07;;;4.03;;
68976;SDS011;56029;52.568;13.588;2023-04-28T02:36:55;8.70;;;3.80;;
68976;SDS011;56029;52.568;13.588;2023-04-28T02:39:21;9.37;;;3.83;;
68976;SDS011;56029;52.568;13.588;2023-04-28T02:41:49;7.95;;;3.65;;
68976;SDS011;56029;52.568;13.588;2023-04-28T02:44:16;8.50;;;4.18;;
68976;SDS011;56029;52.568;13.588;2023-04-28T02:46:42;8.18;;;3.92;;
68976;SDS011;56029;52.568;13.588;2023-04-28T02:49:07;8.27;;;3.73;;
68976;SDS011;56029;52.568;13.588;2023-04-28T02:51:33;7.70;;;4.00;;
68976;SDS011;56029;52.568;13.588;2023-04-28T02:53:58;10.90;;;4.60;;
68976;SDS011;56029;52.568;13.588;2023-04-28T02:56:24;8.35;;;4.20;;
68976;SDS011;56029;52.568;13.588;2023-04-28T02:58:49;10.83;;;4.50;;
68976;SDS011;56029;52.568;13.588;2023-04-28T03:01:15;9.93;;;4.30;;
68976;SDS011;56029;52.568;13.588;2023-04-28T03:03:40;10.73;;;3.92;;
68976;SDS011;56029;52.568;13.588;2023-04-28T03:06:06;8.10;;;4.03;;
68976;SDS011;56029;52.568;13.588;2023-04-28T03:08:31;10.37;;;4.50;;
68976;SDS011;56029;52.568;13.588;2023-04-28T03:10:57;10.20;;;4.78;;
68976;SDS011;56029;52.568;13.588;2023-04-28T03:13:22;10.93;;;4.70;;
68976;SDS011;56029;52.568;13.588;2023-04-28T03:15:48;8.30;;;4.23;;
68976;SDS011;56029;52.568;13.588;2023-04-28T03:18:14;10.00;;;4.20;;
68976;SDS011;56029;52.568;13.588;2023-04-28T03:20:39;10.02;;;3.85;;
68976;SDS011;56029;52.568;13.588;2023-04-28T03:23:05;9.43;;;4.33;;
68976;SDS011;56029;52.568;13.588;2023-04-28T03:25:30;11.95;;;4.45;;
68976;SDS011;56029;52.568;13.588;2023-04-28T03:27:56;8.75;;;4.10;;
68976;SDS011;56029;52.568;13.588;2023-04-28T03:30:21;9.33;;;4.97;;
68976;SDS011;56029;52.568;13.588;2023-04-28T03:32:47;8.82;;;4.30;;
68976;SDS011;56029;52.568;13.588;2023-04-28T03:35:12;8.77;;;4.45;;
68976;SDS011;56029;52.568;13.588;2023-04-28T03:37:38;9.33;;;4.80;;
68976;SDS011;56029;52.568;13.588;2023-04-28T03:40:04;9.65;;;4.10;;
68976;SDS011;56029;52.568;13.588;2023-04-28T03:42:30;10.13;;;4.80;;
68976;SDS011;56029;52.568;13.588;2023-04-28T03:44:55;8.70;;;4.13;;
68976;SDS011;56029;52.568;13.588;2023-04-28T03:47:21;10.53;;;4.33;;
68976;SDS011;56029;52.568;13.588;2023-04-28T03:49:46;9.20;;;4.27;;
68976;SDS011;56029;52.568;13.588;2023-04-28T03:52:12;9.85;;;4.53;;
68976;SDS011;56029;52.568;13.588;2023-04-28T03:54:37;8.90;;;4.50;;
68976;SDS011;56029;52.568;13.588;2023-04-28T03:57:03;9.60;;;4.37;;
68976;SDS011;56029;52.568;13.588;2023-04-28T03:59:28;8.90;;;4.25;;
68976;SDS011;56029;52.568;13.588;2023-04-28T04:01:54;8.63;;;4.50;;
68976;SDS011;56029;52.568;13.588;2023-04-28T04:04:19;9.52;;;4.28;;
68976;SDS011;56029;52.568;13.588;2023-04-28T04:06:45;8.60;;;4.13;;
68976;SDS011;56029;52.568;13.588;2023-04-28T04:09:11;11.98;;;4.97;;
68976;SDS011;56029;52.568;13.588;2023-04-28T04:11:36;8.50;;;4.17;;
68976;SDS011;56029;52.568;13.588;2023-04-28T04:14:02;9.03;;;4.17;;
68976;SDS011;56029;52.568;13.588;2023-04-28T04:16:27;8.63;;;4.17;;
68976;SDS011;56029;52.568;13.588;2023-04-28T04:18:53;8.70;;;4.13;;
68976;SDS011;56029;52.568;13.588;2023-04-28T04:21:19;10.40;;;4.50;;
68976;SDS011;56029;52.568;13.588;2023-04-28T04:23:44;9.07;;;4.20;;
68976;SDS011;56029;52.568;13.588;2023-04-28T04:26:10;9.80;;;4.33;;
68976;SDS011;56029;52.568;13.588;2023-04-28T04:28:35;9.70;;;4.50;;
68976;SDS011;56029;52.568;13.588;2023-04-28T04:31:01;8.73;;;4.00;;
68976;SDS011;56029;52.568;13.588;2023-04-28T04:33:27;8.60;;;4.07;;
68976;SDS011;56029;52.568;13.588;2023-04-28T04:35:53;10.10;;;4.10;;
68976;SDS011;56029;52.568;13.588;2023-04-28T04:38:18;13.93;;;4.50;;
68976;SDS011;56029;52.568;13.588;2023-04-28T04:40:44;8.20;;;4.13;;
68976;SDS011;56029;52.568;13.588;2023-04-28T04:43:09;8.73;;;4.00;;
68976;SDS011;56029;52.568;13.588;2023-04-28T04:45:35;9.07;;;4.70;;
68976;SDS011;56029;52.568;13.588;2023-04-28T04:48:01;9.53;;;4.57;;
68976;SDS011;56029;52.568;13.588;2023-04-28T04:50:27;10.20;;;4.82;;
68976;SDS011;56029;52.568;13.588;2023-04-28T04:52:52;9.67;;;4.80;;
68976;SDS011;56029;52.568;13.588;2023-04-28T04:55:20;9.80;;;4.85;;
68976;SDS011;56029;52.568;13.588;2023-04-28T04:57:46;10.27;;;4.75;;
68976;SDS011;56029;52.568;13.588;2023-04-28T05:00:12;10.97;;;5.23;;
68976;SDS011;56029;52.568;13.588;2023-04-28T05:02:38;9.70;;;5.00;;
68976;SDS011;56029;52.568;13.588;2023-04-28T05:05:04;11.90;;;5.67;;
68976;SDS011;56029;52.568;13.588;2023-04-28T05:07:30;9.97;;;5.00;;
68976;SDS011;56029;52.568;13.588;2023-04-28T05:09:56;11.82;;;5.82;;
68976;SDS011;56029;52.568;13.588;2023-04-28T05:12:22;12.75;;;5.50;;
68976;SDS011;56029;52.568;13.588;2023-04-28T05:14:47;11.07;;;5.10;;
68976;SDS011;56029;52.568;13.588;2023-04-28T05:17:13;10.57;;;5.17;;
68976;SDS011;56029;52.568;13.588;2023-04-28T05:19:38;11.17;;;5.37;;
68976;SDS011;56029;52.568;13.588;2023-04-28T05:22:04;11.98;;;5.53;;
68976;SDS011;56029;52.568;13.588;2023-04-28T05:24:29;9.97;;;4.97;;
68976;SDS011;56029;52.568;13.588;2023-04-28T05:26:57;11.80;;;5.20;;
68976;SDS011;56029;52.568;13.588;2023-04-28T05:29:23;10.40;;;5.22;;
68976;SDS011;56029;52.568;13.588;2023-04-28T05:31:48;11.32;;;4.93;;
68976;SDS011;56029;52.568;13.588;2023-04-28T05:34:14;10.03;;;5.17;;
68976;SDS011;56029;52.568;13.588;2023-04-28T05:36:39;11.80;;;5.20;;
68976;SDS011;56029;52.568;13.588;2023-04-28T05:39:05;10.75;;;5.32;;
68976;SDS011;56029;52.568;13.588;2023-04-28T05:41:32;10.23;;;4.80;;
68976;SDS011;56029;52.568;13.588;2023-04-28T05:43:59;9.65;;;4.45;;
68976;SDS011;56029;52.568;13.588;2023-04-28T05:46:25;10.33;;;5.10;;
68976;SDS011;56029;52.568;13.588;2023-04-28T05:48:50;9.57;;;4.83;;
68976;SDS011;56029;52.568;13.588;2023-04-28T05:51:16;13.45;;;5.35;;
68976;SDS011;56029;52.568;13.588;2023-04-28T05:53:41;10.80;;;5.30;;
68976;SDS011;56029;52.568;13.588;2023-04-28T05:56:07;11.87;;;5.27;;
68976;SDS011;56029;52.568;13.588;2023-04-28T05:58:33;9.88;;;4.72;;
68976;SDS011;56029;52.568;13.588;2023-04-28T06:00:58;11.43;;;4.70;;
68976;SDS011;56029;52.568;13.588;2023-04-28T06:03:24;12.30;;;5.07;;
68976;SDS011;56029;52.568;13.588;2023-04-28T06:05:50;9.73;;;4.53;;
68976;SDS011;56029;52.568;13.588;2023-04-28T06:08:15;11.05;;;5.47;;
68976;SDS011;56029;52.568;13.588;2023-04-28T06:10:41;12.03;;;6.10;;
68976;SDS011;56029;52.568;13.588;2023-04-28T06:13:06;11.97;;;5.30;;
68976;SDS011;56029;52.568;13.588;2023-04-28T06:15:33;11.88;;;5.30;;
68976;SDS011;56029;52.568;13.588;2023-04-28T06:17:59;9.52;;;4.82;;
68976;SDS011;56029;52.568;13.588;2023-04-28T06:20:25;10.53;;;5.00;;
68976;SDS011;56029;52.568;13.588;2023-04-28T06:22:50;12.50;;;4.90;;
68976;SDS011;56029;52.568;13.588;2023-04-28T06:25:16;9.60;;;4.60;;
68976;SDS011;56029;52.568;13.588;2023-04-28T06:27:42;12.10;;;4.83;;
68976;SDS011;56029;52.568;13.588;2023-04-28T06:30:07;10.95;;;4.82;;
68976;SDS011;56029;52.568;13.588;2023-04-28T06:32:33;10.73;;;4.93;;
68976;SDS011;56029;52.568;13.588;2023-04-28T06:34:59;10.77;;;4.90;;
68976;SDS011;56029;52.568;13.588;2023-04-28T06:37:24;10.47;;;4.17;;
68976;SDS011;56029;52.568;13.588;2023-04-28T06:39:51;10.07;;;4.75;;
68976;SDS011;56029;52.568;13.588;2023-04-28T06:42:16;11.20;;;4.90;;
68976;SDS011;56029;52.568;13.588;2023-04-28T06:44:43;9.30;;;4.30;;
68976;SDS011;56029;52.568;13.588;2023-04-28T06:47:09;10.23;;;4.15;;
68976;SDS011;56029;52.568;13.588;2023-04-28T06:49:35;9.50;;;4.32;;
68976;SDS011;56029;52.568;13.588;2023-04-28T06:52:01;9.77;;;4.10;;
68976;SDS011;56029;52.568;13.588;2023-04-28T06:54:27;10.15;;;4.10;;
68976;SDS011;56029;52.568;13.588;2023-04-28T06:56:52;9.97;;;4.20;;
68976;SDS011;56029;52.568;13.588;2023-04-28T06:59:18;8.73;;;4.30;;
68976;SDS011;56029;52.568;13.588;2023-04-28T07:01:43;7.93;;;3.83;;
68976;SDS011;56029;52.568;13.588;2023-04-28T07:04:09;9.55;;;4.45;;
68976;SDS011;56029;52.568;13.588;2023-04-28T07:06:34;8.00;;;3.87;;
68976;SDS011;56029;52.568;13.588;2023-04-28T07:09:00;8.05;;;4.13;;
68976;SDS011;56029;52.568;13.588;2023-04-28T07:11:25;8.93;;;4.03;;
68976;SDS011;56029;52.568;13.588;2023-04-28T07:13:51;10.13;;;3.90;;
68976;SDS011;56029;52.568;13.588;2023-04-28T07:16:17;8.43;;;3.65;;
68976;SDS011;56029;52.568;13.588;2023-04-28T07:18:43;12.47;;;4.57;;
68976;SDS011;56029;52.568;13.588;2023-04-28T07:21:09;8.95;;;3.70;;
68976;SDS011;56029;52.568;13.588;2023-04-28T07:23:34;7.40;;;3.50;;
68976;SDS011;56029;52.568;13.588;2023-04-28T07:26:02;8.95;;;3.60;;
68976;SDS011;56029;52.568;13.588;2023-04-28T07:28:28;9.93;;;3.42;;
68976;SDS011;56029;52.568;13.588;2023-04-28T07:30:54;9.13;;;3.80;;
68976;SDS011;56029;52.568;13.588;2023-04-28T07:33:19;9.55;;;3.72;;
68976;SDS011;56029;52.568;13.588;2023-04-28T07:35:45;8.40;;;3.97;;
68976;SDS011;56029;52.568;13.588;2023-04-28T07:38:11;8.20;;;3.85;;
68976;SDS011;56029;52.568;13.588;2023-04-28T07:40:36;7.80;;;3.70;;
68976;SDS011;56029;52.568;13.588;2023-04-28T07:43:02;8.33;;;3.70;;
68976;SDS011;56029;52.568;13.588;2023-04-28T07:45:28;7.20;;;3.70;;
68976;SDS011;56029;52.568;13.588;2023-04-28T07:47:53;9.45;;;3.72;;
68976;SDS011;56029;52.568;13.588;2023-04-28T07:50:19;9.47;;;4.17;;
68976;SDS011;56029;52.568;13.588;2023-04-28T07:52:45;7.82;;;3.55;;
68976;SDS011;56029;52.568;13.588;2023-04-28T07:55:10;8.13;;;3.80;;
68976;SDS011;56029;52.568;13.588;2023-04-28T07:57:36;7.25;;;3.72;;
68976;SDS011;56029;52.568;13.588;2023-04-28T08:00:02;9.43;;;3.60;;
68976;SDS011;56029;52.568;13.588;2023-04-28T08:02:28;10.25;;;4.63;;
68976;SDS011;56029;52.568;13.588;2023-04-28T08:04:54;10.27;;;4.23;;
68976;SDS011;56029;52.568;13.588;2023-04-28T08:07:20;11.73;;;4.77;;
68976;SDS011;56029;52.568;13.588;2023-04-28T08:09:45;10.18;;;4.38;;
68976;SDS011;56029;52.568;13.588;2023-04-28T08:12:15;10.27;;;4.30;;
68976;SDS011;56029;52.568;13.588;2023-04-28T08:14:40;8.50;;;4.35;;
68976;SDS011;56029;52.568;13.588;2023-04-28T08:17:07;11.07;;;4.03;;
68976;SDS011;56029;52.568;13.588;2023-04-28T08:19:32;11.93;;;3.90;;
68976;SDS011;56029;52.568;13.588;2023-04-28T08:21:58;9.15;;;4.20;;
68976;SDS011;56029;52.568;13.588;2023-04-28T08:24:24;8.70;;;4.10;;
68976;SDS011;56029;52.568;13.588;2023-04-28T08:26:49;9.60;;;4.10;;
68976;SDS011;56029;52.568;13.588;2023-04-28T08:29:15;9.23;;;4.10;;
68976;SDS011;56029;52.568;13.588;2023-04-28T08:31:41;7.97;;;3.90;;
68976;SDS011;56029;52.568;13.588;2023-04-28T08:34:06;11.00;;;4.30;;
68976;SDS011;56029;52.568;13.588;2023-04-28T08:36:32;9.20;;;4.30;;
68976;SDS011;56029;52.568;13.588;2023-04-28T08:38:58;10.47;;;4.50;;
68976;SDS011;56029;52.568;13.588;2023-04-28T08:41:26;8.95;;;4.22;;
68976;SDS011;56029;52.568;13.588;2023-04-28T08:43:53;8.38;;;4.30;;
68976;SDS011;56029;52.568;13.588;2023-04-28T08:46:20;10.90;;;4.30;;
68976;SDS011;56029;52.568;13.588;2023-04-28T08:48:46;8.65;;;4.38;;
68976;SDS011;56029;52.568;13.588;2023-04-28T08:51:14;9.82;;;4.53;;
68976;SDS011;56029;52.568;13.588;2023-04-28T08:53:43;9.63;;;4.70;;
68976;SDS011;56029;52.568;13.588;2023-04-28T08:56:14;10.03;;;4.37;;
68976;SDS011;56029;52.568;13.588;2023-04-28T08:58:40;10.32;;;4.45;;
68976;SDS011;56029;52.568;13.588;2023-04-28T09:01:07;10.15;;;4.90;;
68976;SDS011;56029;52.568;13.588;2023-04-28T09:03:33;8.60;;;4.57;;
68976;SDS011;56029;52.568;13.588;2023-04-28T09:06:00;9.50;;;4.63;;
68976;SDS011;56029;52.568;13.588;2023-04-28T09:08:26;9.25;;;5.00;;
68976;SDS011;56029;52.568;13.588;2023-04-28T09:11:08;10.23;;;4.97;;
68976;SDS011;56029;52.568;13.588;2023-04-28T09:13:35;9.83;;;5.10;;
68976;SDS011;56029;52.568;13.588;2023-04-28T09:16:01;10.57;;;4.85;;
68976;SDS011;56029;52.568;13.588;2023-04-28T09:18:30;9.32;;;4.65;;
68976;SDS011;56029;52.568;13.588;2023-04-28T09:21:04;10.23;;;5.10;;
68976;SDS011;56029;52.568;13.588;2023-04-28T09:23:31;11.57;;;5.70;;
68976;SDS011;56029;52.568;13.588;2023-04-28T09:26:07;10.53;;;5.63;;
68976;SDS011;56029;52.568;13.588;2023-04-28T09:28:33;9.63;;;4.80;;
68976;SDS011;56029;52.568;13.588;2023-04-28T09:31:00;10.45;;;5.60;;
68976;SDS011;56029;52.568;13.588;2023-04-28T09:33:26;11.15;;;6.15;;
68976;SDS011;56029;52.568;13.588;2023-04-28T09:35:52;11.75;;;5.82;;
68976;SDS011;56029;52.568;13.588;2023-04-28T09:38:19;12.03;;;6.07;;
68976;SDS011;56029;52.568;13.588;2023-04-28T09:43:27;11.48;;;5.80;;
68976;SDS011;56029;52.568;13.588;2023-04-28T09:46:00;12.20;;;5.97;;
68976;SDS011;56029;52.568;13.588;2023-04-28T09:48:27;12.35;;;6.70;;
68976;SDS011;56029;52.568;13.588;2023-04-28T09:50:54;11.73;;;6.00;;
68976;SDS011;56029;52.568;13.588;2023-04-28T09:53:24;11.75;;;6.38;;
68976;SDS011;56029;52.568;13.588;2023-04-28T09:55:54;11.60;;;5.88;;
68976;SDS011;56029;52.568;13.588;2023-04-28T09:58:21;13.57;;;7.28;;
68976;SDS011;56029;52.568;13.588;2023-04-28T10:00:55;12.38;;;6.53;;
68976;SDS011;56029;52.568;13.588;2023-04-28T10:03:22;12.93;;;6.10;;
68976;SDS011;56029;52.568;13.588;2023-04-28T10:05:52;12.50;;;6.70;;
68976;SDS011;56029;52.568;13.588;2023-04-28T10:08:21;14.00;;;6.35;;
68976;SDS011;56029;52.568;13.588;2023-04-28T10:10:49;11.80;;;6.20;;
68976;SDS011;56029;52.568;13.588;2023-04-28T10:13:19;11.02;;;6.00;;
68976;SDS011;56029;52.568;13.588;2023-04-28T10:15:48;13.37;;;8.13;;
68976;SDS011;56029;52.568;13.588;2023-04-28T10:18:14;10.85;;;6.18;;
68976;SDS011;56029;52.568;13.588;2023-04-28T10:20:47;12.52;;;6.05;;
68976;SDS011;56029;52.568;13.588;2023-04-28T10:26:12;10.07;;;6.07;;
68976;SDS011;56029;52.568;13.588;2023-04-28T10:28:48;10.93;;;5.90;;
68976;SDS011;56029;52.568;13.588;2023-04-28T10:31:16;12.30;;;6.03;;
68976;SDS011;56029;52.568;13.588;2023-04-28T10:33:44;14.07;;;6.15;;
68976;SDS011;56029;52.568;13.588;2023-04-28T10:36:16;11.05;;;6.20;;
68976;SDS011;56029;52.568;13.588;2023-04-28T10:39:11;10.65;;;6.35;;
68976;SDS011;56029;52.568;13.588;2023-04-28T10:41:37;10.43;;;6.30;;
68976;SDS011;56029;52.568;13.588;2023-04-28T11:00:39;13.33;;;6.47;;
68976;SDS011;56029;52.568;13.588;2023-04-28T11:03:05;12.15;;;6.07;;
68976;SDS011;56029;52.568;13.588;2023-04-28T11:05:31;12.00;;;5.88;;
68976;SDS011;56029;52.568;13.588;2023-04-28T11:13:40;11.35;;;6.75;;
68976;SDS011;56029;52.568;13.588;2023-04-28T11:16:06;11.35;;;6.70;;
68976;SDS011;56029;52.568;13.588;2023-04-28T11:18:38;11.57;;;6.23;;
68976;SDS011;56029;52.568;13.588;2023-04-28T11:21:17;10.00;;;5.95;;
68976;SDS011;56029;52.568;13.588;2023-04-28T11:23:43;10.38;;;5.85;;
68976;SDS011;56029;52.568;13.588;2023-04-28T11:26:09;11.65;;;6.30;;
68976;SDS011;56029;52.568;13.588;2023-04-28T11:28:35;14.43;;;6.65;;
68976;SDS011;56029;52.568;13.588;2023-04-28T11:31:11;12.83;;;6.57;;
68976;SDS011;56029;52.568;13.588;2023-04-28T11:33:38;13.68;;;6.72;;
68976;SDS011;56029;52.568;13.588;2023-04-28T11:36:05;10.82;;;6.60;;
68976;SDS011;56029;52.568;13.588;2023-04-28T11:38:43;10.90;;;6.53;;
68976;SDS011;56029;52.568;13.588;2023-04-28T11:41:09;12.55;;;6.45;;
68976;SDS011;56029;52.568;13.588;2023-04-28T11:43:35;11.83;;;6.73;;
68976;SDS011;56029;52.568;13.588;2023-04-28T11:46:01;11.10;;;6.30;;
68976;SDS011;56029;52.568;13.588;2023-04-28T11:48:26;12.37;;;6.63;;
68976;SDS011;56029;52.568;13.588;2023-04-28T11:50:52;11.40;;;6.53;;
68976;SDS011;56029;52.568;13.588;2023-04-28T11:53:18;11.17;;;6.23;;
68976;SDS011;56029;52.568;13.588;2023-04-28T11:55:44;11.20;;;5.97;;
68976;SDS011;56029;52.568;13.588;2023-04-28T11:58:17;12.85;;;6.00;;
68976;SDS011;56029;52.568;13.588;2023-04-28T12:00:43;12.70;;;6.23;;
68976;SDS011;56029;52.568;13.588;2023-04-28T12:03:09;11.82;;;6.38;;
68976;SDS011;56029;52.568;13.588;2023-04-28T12:05:41;11.27;;;6.60;;
68976;SDS011;56029;52.568;13.588;2023-04-28T12:08:09;11.35;;;6.28;;
68976;SDS011;56029;52.568;13.588;2023-04-28T12:10:34;10.07;;;5.82;;
68976;SDS011;56029;52.568;13.588;2023-04-28T12:13:13;12.87;;;6.57;;
68976;SDS011;56029;52.568;13.588;2023-04-28T12:15:40;11.48;;;6.43;;
68976;SDS011;56029;52.568;13.588;2023-04-28T12:18:09;12.65;;;6.63;;
68976;SDS011;56029;52.568;13.588;2023-04-28T12:20:36;11.52;;;6.63;;
68976;SDS011;56029;52.568;13.588;2023-04-28T12:23:02;13.80;;;6.80;;
68976;SDS011;56029;52.568;13.588;2023-04-28T12:25:28;11.20;;;6.43;;
68976;SDS011;56029;52.568;13.588;2023-04-28T12:28:04;12.17;;;6.50;;
68976;SDS011;56029;52.568;13.588;2023-04-28T12:30:34;12.73;;;6.30;;
68976;SDS011;56029;52.568;13.588;2023-04-28T12:33:20;11.07;;;6.78;;
68976;SDS011;56029;52.568;13.588;2023-04-28T12:35:49;13.23;;;7.15;;
68976;SDS011;56029;52.568;13.588;2023-04-28T12:38:15;10.67;;;6.23;;
68976;SDS011;56029;52.568;13.588;2023-04-28T12:40:41;11.35;;;6.20;;
68976;SDS011;56029;52.568;13.588;2023-04-28T12:43:07;11.73;;;6.53;;
68976;SDS011;56029;52.568;13.588;2023-04-28T12:45:32;11.93;;;6.77;;
68976;SDS011;56029;52.568;13.588;2023-04-28T12:47:59;12.63;;;6.45;;
68976;SDS011;56029;52.568;13.588;2023-04-28T12:50:24;11.53;;;6.43;;
68976;SDS011;56029;52.568;13.588;2023-04-28T12:52:51;14.10;;;7.10;;
68976;SDS011;56029;52.568;13.588;2023-04-28T12:55:16;12.10;;;6.83;;
68976;SDS011;56029;52.568;13.588;2023-04-28T12:57:43;12.45;;;6.63;;
68976;SDS011;56029;52.568;13.588;2023-04-28T13:00:08;11.87;;;6.77;;
68976;SDS011;56029;52.568;13.588;2023-04-28T13:02:34;11.23;;;6.85;;
68976;SDS011;56029;52.568;13.588;2023-04-28T13:05:00;10.30;;;6.53;;
68976;SDS011;56029;52.568;13.588;2023-04-28T13:07:26;11.35;;;6.75;;
68976;SDS011;56029;52.568;13.588;2023-04-28T13:09:51;11.13;;;6.60;;
68976;SDS011;56029;52.568;13.588;2023-04-28T13:12:17;12.05;;;6.90;;
68976;SDS011;56029;52.568;13.588;2023-04-28T13:14:43;11.80;;;6.73;;
68976;SDS011;56029;52.568;13.588;2023-04-28T13:17:08;11.98;;;6.72;;
68976;SDS011;56029;52.568;13.588;2023-04-28T13:19:34;11.05;;;6.30;;
68976;SDS011;56029;52.568;13.588;2023-04-28T13:22:00;10.30;;;6.10;;
68976;SDS011;56029;52.568;13.588;2023-04-28T13:24:29;12.38;;;5.95;;
68976;SDS011;56029;52.568;13.588;2023-04-28T13:26:55;11.07;;;6.40;;
68976;SDS011;56029;52.568;13.588;2023-04-28T13:29:20;11.65;;;6.45;;
68976;SDS011;56029;52.568;13.588;2023-04-28T13:31:46;10.03;;;6.43;;
68976;SDS011;56029;52.568;13.588;2023-04-28T13:34:12;12.15;;;6.07;;
68976;SDS011;56029;52.568;13.588;2023-04-28T13:36:42;10.30;;;5.80;;
68976;SDS011;56029;52.568;13.588;2023-04-28T13:39:07;11.35;;;6.10;;
68976;SDS011;56029;52.568;13.588;2023-04-28T13:41:38;9.63;;;5.90;;
68976;SDS011;56029;52.568;13.588;2023-04-28T13:44:07;12.85;;;6.70;;
68976;SDS011;56029;52.568;13.588;2023-04-28T13:46:33;14.63;;;6.23;;
68976;SDS011;56029;52.568;13.588;2023-04-28T13:48:59;11.18;;;6.53;;
68976;SDS011;56029;52.568;13.588;2023-04-28T13:51:24;11.77;;;6.37;;
68976;SDS011;56029;52.568;13.588;2023-04-28T13:53:50;9.70;;;6.30;;
68976;SDS011;56029;52.568;13.588;2023-04-28T13:56:15;10.82;;;5.93;;
68976;SDS011;56029;52.568;13.588;2023-04-28T13:58:41;11.20;;;6.07;;
68976;SDS011;56029;52.568;13.588;2023-04-28T14:01:06;11.30;;;5.87;;
68976;SDS011;56029;52.568;13.588;2023-04-28T14:03:32;11.43;;;5.97;;
68976;SDS011;56029;52.568;13.588;2023-04-28T14:05:58;10.35;;;5.90;;
68976;SDS011;56029;52.568;13.588;2023-04-28T14:08:24;12.07;;;5.93;;
68976;SDS011;56029;52.568;13.588;2023-04-28T14:10:50;11.23;;;6.20;;
68976;SDS011;56029;52.568;13.588;2023-04-28T14:13:16;11.43;;;5.93;;
68976;SDS011;56029;52.568;13.588;2023-04-28T14:15:43;9.80;;;5.80;;
68976;SDS011;56029;52.568;13.588;2023-04-28T14:18:09;10.68;;;6.30;;
68976;SDS011;56029;52.568;13.588;2023-04-28T14:20:36;10.95;;;7.00;;
68976;SDS011;56029;52.568;13.588;2023-04-28T14:23:01;12.40;;;6.30;;
68976;SDS011;56029;52.568;13.588;2023-04-28T14:25:27;11.13;;;5.90;;
68976;SDS011;56029;52.568;13.588;2023-04-28T14:27:53;10.87;;;5.90;;
68976;SDS011;56029;52.568;13.588;2023-04-28T14:30:19;12.05;;;6.32;;
68976;SDS011;56029;52.568;13.588;2023-04-28T14:32:46;10.98;;;6.20;;
68976;SDS011;56029;52.568;13.588;2023-04-28T14:35:12;10.00;;;5.80;;
68976;SDS011;56029;52.568;13.588;2023-04-28T14:37:40;10.95;;;6.20;;
68976;SDS011;56029;52.568;13.588;2023-04-28T14:40:06;10.63;;;5.60;;
68976;SDS011;56029;52.568;13.588;2023-04-28T14:42:33;9.70;;;5.53;;
68976;SDS011;56029;52.568;13.588;2023-04-28T14:45:07;11.55;;;5.95;;
68976;SDS011;56029;52.568;13.588;2023-04-28T14:47:35;9.98;;;6.10;;
68976;SDS011;56029;52.568;13.588;2023-04-28T14:50:03;12.00;;;6.47;;